Time;durP1;ratioP1;P1;durP2;ratioP2;P2;SDS_P1;SDS_P2;PMS_P1;PMS_P2;Temp;Humidity;BMP_temperature;BMP_pressure;BME280_temperature;BME280_humidity;BME280_pressure;Samples;Min_cycle;Max_cycle;Signal;HPM_P1;HPM_P2
2023/01/31 00:01:37;;;;;;;3.60;1.33;;;14.60;65.70;;;;;;5033977;28;20538;-75
2023/01/31 00:04:06;;;;;;;4.10;1.20;;;14.40;57.90;;;;;;5033940;28;20041;-74
2023/01/31 00:06:35;;;;;;;6.22;1.48;;;14.40;58.10;;;;;;5033892;28;20503;-75
2023/01/31 00:09:03;;;;;;;2.90;1.50;;;14.40;57.80;;;;;;5033875;28;20021;-75
2023/01/31 00:11:29;;;;;;;2.42;1.00;;;14.40;57.80;;;;;;5033754;28;20028;-74
2023/01/31 00:13:57;;;;;;;3.85;1.30;;;14.40;57.80;;;;;;5034016;28;20025;-75
2023/01/31 00:16:22;;;;;;;5.70;1.20;;;14.40;57.80;;;;;;5033630;28;20025;-75
2023/01/31 00:18:49;;;;;;;2.78;1.30;;;14.40;57.80;;;;;;5033672;28;20040;-74
2023/01/31 00:21:17;;;;;;;4.07;1.65;;;14.40;57.80;;;;;;5033763;28;20053;-74
2023/01/31 00:23:44;;;;;;;5.03;1.80;;;14.40;57.80;;;;;;5033558;28;20025;-74
2023/01/31 00:26:21;;;;;;;3.38;1.48;;;14.40;57.80;;;;;;5033555;28;20038;-75
2023/01/31 00:28:48;;;;;;;4.25;1.88;;;14.40;57.80;;;;;;5033586;28;20119;-74
2023/01/31 00:31:15;;;;;;;3.80;1.13;;;14.40;57.90;;;;;;5033648;28;20032;-74
2023/01/31 00:33:43;;;;;;;4.45;1.73;;;14.40;57.80;;;;;;5033585;28;20049;-74
2023/01/31 00:36:14;;;;;;;3.28;1.35;;;14.40;57.80;;;;;;5033436;28;20028;-74
2023/01/31 00:38:41;;;;;;;5.20;1.50;;;14.40;57.80;;;;;;5033313;28;20040;-75
2023/01/31 00:41:07;;;;;;;3.25;1.20;;;14.40;57.90;;;;;;5033597;28;20025;-75
2023/01/31 00:43:33;;;;;;;4.07;1.35;;;14.40;57.90;;;;;;5033137;28;20025;-74
2023/01/31 00:45:59;;;;;;;4.15;1.60;;;14.40;57.90;;;;;;5033134;28;20420;-75
2023/01/31 00:48:26;;;;;;;5.43;1.50;;;14.40;57.90;;;;;;5033074;28;20025;-75
2023/01/31 00:50:51;;;;;;;4.70;1.33;;;14.30;57.90;;;;;;5033266;28;20025;-75
2023/01/31 00:53:22;;;;;;;2.65;1.10;;;14.30;58.50;;;;;;5033061;28;20052;-74
2023/01/31 00:55:48;;;;;;;3.33;1.30;;;14.30;57.80;;;;;;5033276;28;20030;-75
2023/01/31 00:58:14;;;;;;;5.30;1.60;;;14.30;57.80;;;;;;5032933;28;20037;-75
2023/01/31 01:00:39;;;;;;;3.15;1.17;;;14.30;57.90;;;;;;5015085;28;20503;-74
2023/01/31 01:03:05;;;;;;;3.33;1.02;;;14.30;57.90;;;;;;5014906;28;20037;-75
2023/01/31 01:05:30;;;;;;;3.10;1.20;;;14.30;57.90;;;;;;5032231;28;20069;-75
2023/01/31 01:07:56;;;;;;;4.13;1.45;;;14.30;57.90;;;;;;5032714;28;20021;-75
2023/01/31 01:10:22;;;;;;;5.18;1.42;;;14.30;57.90;;;;;;5032723;28;20032;-75
2023/01/31 01:12:47;;;;;;;4.43;1.40;;;14.30;57.90;;;;;;5032742;28;20483;-75
2023/01/31 01:15:13;;;;;;;3.10;1.45;;;14.30;57.90;;;;;;5032730;28;20565;-75
2023/01/31 01:17:39;;;;;;;3.60;1.40;;;14.30;58.00;;;;;;5032871;28;20025;-74
2023/01/31 01:20:05;;;;;;;3.47;1.13;;;14.30;58.00;;;;;;5032586;28;20044;-74
2023/01/31 01:22:32;;;;;;;4.70;1.25;;;14.30;57.90;;;;;;5032644;28;20022;-75
2023/01/31 01:24:57;;;;;;;5.75;1.30;;;14.30;58.00;;;;;;5032334;28;20045;-75
2023/01/31 01:27:23;;;;;;;3.53;1.30;;;14.30;57.90;;;;;;5032522;28;20021;-75
2023/01/31 01:29:49;;;;;;;3.30;1.33;;;14.30;57.90;;;;;;5032272;28;20072;-75
2023/01/31 01:32:14;;;;;;;4.28;1.40;;;14.30;57.90;;;;;;5032703;28;20028;-73
2023/01/31 01:34:40;;;;;;;3.72;1.20;;;14.30;57.90;;;;;;5032308;28;20029;-73
2023/01/31 01:37:10;;;;;;;5.57;1.50;;;14.20;57.90;;;;;;5032294;28;20025;-73
2023/01/31 01:39:39;;;;;;;;;;;14.20;57.90;;;;;;5032702;28;20433;-73
2023/01/31 01:42:07;;;;;;;4.53;1.42;;;14.20;57.90;;;;;;5032310;28;19950;-73
2023/01/31 01:44:46;;;;;;;4.70;1.40;;;14.20;57.90;;;;;;5032156;28;20055;-73
2023/01/31 01:47:21;;;;;;;3.20;1.20;;;14.20;57.90;;;;;;5032512;28;20136;-74
2023/01/31 01:49:51;;;;;;;5.15;1.40;;;14.20;57.80;;;;;;5032121;28;20032;-73
2023/01/31 01:52:17;;;;;;;4.32;1.58;;;14.20;57.90;;;;;;5032572;28;20017;-74
2023/01/31 01:55:10;;;;;;;3.88;1.65;;;14.20;57.90;;;;;;5032068;28;20022;-74
2023/01/31 01:57:39;;;;;;;4.85;1.50;;;14.20;57.90;;;;;;5032123;28;20051;-73
2023/01/31 02:00:21;;;;;;;7.00;1.80;;;14.20;57.90;;;;;;5032082;28;20036;-73
2023/01/31 02:02:49;;;;;;;4.85;1.40;;;14.20;57.80;;;;;;5031649;28;20050;-73
2023/01/31 02:05:20;;;;;;;4.93;1.50;;;14.20;57.90;;;;;;5031976;28;20472;-73
2023/01/31 02:07:46;;;;;;;7.97;2.22;;;14.10;57.70;;;;;;5031943;28;20361;-73
2023/01/31 02:10:18;;;;;;;5.85;1.30;;;14.20;57.80;;;;;;5031973;28;20028;-74
2023/01/31 02:12:44;;;;;;;5.57;1.50;;;14.10;57.90;;;;;;5031966;28;20033;-74
2023/01/31 02:15:10;;;;;;;3.45;1.83;;;14.10;57.90;;;;;;5031900;28;20033;-74
2023/01/31 02:17:36;;;;;;;4.47;1.30;;;14.20;58.60;;;;;;5034446;28;20018;-73
2023/01/31 02:20:38;;;;;;;4.55;1.73;;;14.10;57.90;;;;;;5018069;28;20018;-74
2023/01/31 02:23:41;;;;;;;5.32;1.63;;;14.10;57.80;;;;;;5035761;28;20395;-73
2023/01/31 02:26:40;;;;;;;3.83;1.38;;;14.10;57.80;;;;;;5035646;28;20048;-73
2023/01/31 02:29:24;;;;;;;5.65;1.60;;;14.10;57.90;;;;;;5035861;28;20079;-74
2023/01/31 02:31:52;;;;;;;6.00;1.70;;;14.10;57.90;;;;;;5035705;28;20021;-73
2023/01/31 02:34:55;;;;;;;2.97;1.05;;;14.10;57.90;;;;;;5035719;28;20437;-73
2023/01/31 02:37:20;;;;;;;5.15;1.50;;;14.10;57.90;;;;;;5004628;28;20041;-73
2023/01/31 02:39:56;;;;;;;8.63;1.92;;;14.10;58.00;;;;;;5035521;28;20491;-73
2023/01/31 02:42:34;;;;;;;5.18;1.90;;;14.10;58.00;;;;;;5035589;28;20048;-74
2023/01/31 02:45:15;;;;;;;5.18;1.55;;;14.10;58.00;;;;;;5035339;28;20033;-73
2023/01/31 02:47:54;;;;;;;6.78;1.83;;;14.10;58.00;;;;;;5035404;28;20112;-73
2023/01/31 02:50:30;;;;;;;5.82;1.67;;;14.10;58.00;;;;;;5035664;28;20028;-73
2023/01/31 02:53:02;;;;;;;4.88;1.40;;;14.10;57.90;;;;;;5035241;28;20296;-73
2023/01/31 02:56:19;;;;;;;4.45;1.75;;;14.10;58.00;;;;;;5035209;28;20030;-73
2023/01/31 02:59:02;;;;;;;5.38;1.67;;;14.10;58.00;;;;;;5034561;28;20048;-73
2023/01/31 03:01:34;;;;;;;5.00;1.50;;;14.10;65.60;;;;;;5035388;28;20353;-73
2023/01/31 03:04:06;;;;;;;6.50;1.83;;;14.10;58.10;;;;;;5034950;28;20052;-76
2023/01/31 03:06:35;;;;;;;4.90;1.83;;;14.10;58.10;;;;;;5035106;28;20068;-74
2023/01/31 03:09:27;;;;;;;5.28;1.98;;;14.00;58.10;;;;;;5035207;28;20030;-73
2023/01/31 03:12:10;;;;;;;5.18;1.58;;;14.00;58.00;;;;;;5034944;28;20071;-74
2023/01/31 03:14:48;;;;;;;4.38;1.60;;;14.00;58.10;;;;;;5034955;28;20057;-73
2023/01/31 03:17:39;;;;;;;5.18;1.55;;;14.00;58.10;;;;;;5034729;28;20060;-74
2023/01/31 03:20:22;;;;;;;4.07;1.60;;;14.00;58.10;;;;;;5034495;28;20369;-74
2023/01/31 03:22:59;;;;;;;3.63;1.60;;;14.00;58.10;;;;;;5034799;28;20021;-73
2023/01/31 03:25:29;;;;;;;4.95;1.80;;;14.00;58.10;;;;;;5034722;28;20029;-74
2023/01/31 03:27:59;;;;;;;6.45;1.60;;;14.00;58.20;;;;;;5034389;28;20029;-74
2023/01/31 03:30:47;;;;;;;4.47;1.70;;;14.00;58.10;;;;;;5034600;28;20072;-74
2023/01/31 03:33:28;;;;;;;6.78;1.83;;;14.00;58.10;;;;;;5034521;28;20582;-73
2023/01/31 03:36:14;;;;;;;4.05;1.92;;;14.00;58.20;;;;;;5034568;28;20038;-74
2023/01/31 03:39:03;;;;;;;4.80;1.20;;;14.00;58.10;;;;;;5003570;28;20111;-73
2023/01/31 03:41:44;;;;;;;6.20;2.05;;;14.00;58.10;;;;;;5034450;28;20431;-73
2023/01/31 03:44:24;;;;;;;7.22;1.90;;;14.00;58.20;;;;;;5034267;28;20080;-74
2023/01/31 03:46:53;;;;;;;;;;;14.00;58.20;;;;;;5034771;28;20101;-74
2023/01/31 03:49:21;;;;;;;5.95;1.83;;;14.00;58.20;;;;;;5034067;28;19905;-73
2023/01/31 03:51:53;;;;;;;4.60;1.98;;;13.90;58.20;;;;;;5034040;28;20035;-74
2023/01/31 03:54:28;;;;;;;4.70;1.77;;;13.90;58.20;;;;;;5034520;28;20033;-74
2023/01/31 03:57:24;;;;;;;3.97;1.88;;;13.90;58.20;;;;;;5034084;28;20025;-74
2023/01/31 03:59:54;;;;;;;5.47;1.92;;;13.90;58.10;;;;;;5011309;28;20140;-74
2023/01/31 04:02:27;;;;;;;5.70;2.22;;;13.90;58.10;;;;;;5015960;28;20037;-74
2023/01/31 04:04:57;;;;;;;7.90;2.40;;;13.90;58.20;;;;;;5033946;28;20520;-74
2023/01/31 04:07:24;;;;;;;6.75;1.90;;;13.90;58.90;;;;;;5033849;28;20151;-74
2023/01/31 04:09:49;;;;;;;5.70;1.85;;;13.90;58.20;;;;;;5033945;28;20026;-74
2023/01/31 04:12:15;;;;;;;5.53;1.75;;;13.90;58.20;;;;;;5033744;28;20033;-74
2023/01/31 04:14:41;;;;;;;6.72;2.17;;;13.90;58.20;;;;;;5033831;28;20028;-74
2023/01/31 04:17:07;;;;;;;4.95;1.67;;;13.90;58.90;;;;;;5033743;28;20051;-74
2023/01/31 04:19:33;;;;;;;4.43;1.65;;;13.90;58.20;;;;;;5034277;28;20021;-74
2023/01/31 04:21:58;;;;;;;4.82;1.80;;;13.90;58.20;;;;;;5033677;28;20476;-75
2023/01/31 04:24:24;;;;;;;8.40;2.22;;;13.90;58.20;;;;;;5033458;28;20105;-74
2023/01/31 04:26:49;;;;;;;5.65;1.88;;;13.90;58.20;;;;;;5033625;28;20053;-74
2023/01/31 04:29:16;;;;;;;8.23;2.63;;;13.90;58.20;;;;;;5033366;28;20017;-74
2023/01/31 04:31:42;;;;;;;4.03;1.60;;;13.90;58.20;;;;;;5033831;28;20292;-74
2023/01/31 04:34:08;;;;;;;6.13;2.78;;;13.90;58.20;;;;;;5033706;28;20097;-74
2023/01/31 04:36:34;;;;;;;6.97;1.90;;;13.80;58.20;;;;;;5033315;28;20057;-73
2023/01/31 04:38:59;;;;;;;6.20;2.00;;;13.80;58.10;;;;;;5032927;28;20083;-73
2023/01/31 04:41:25;;;;;;;5.32;1.58;;;13.80;58.10;;;;;;5033115;28;20026;-73
2023/01/31 04:43:51;;;;;;;8.18;2.33;;;13.90;58.20;;;;;;5033491;28;20079;-74
2023/01/31 04:46:18;;;;;;;6.03;1.80;;;13.80;58.10;;;;;;5033402;28;20057;-73
2023/01/31 04:48:44;;;;;;;6.85;2.10;;;13.90;58.20;;;;;;5033394;28;20029;-74
2023/01/31 04:51:10;;;;;;;4.35;1.73;;;13.90;58.20;;;;;;5033400;28;20053;-73
2023/01/31 04:53:36;;;;;;;6.20;1.70;;;13.90;58.30;;;;;;5033189;28;20028;-73
2023/01/31 04:56:02;;;;;;;6.70;1.92;;;13.90;58.30;;;;;;5033069;28;20029;-73
2023/01/31 04:58:28;;;;;;;5.15;1.95;;;13.90;58.20;;;;;;5032918;28;20021;-73
2023/01/31 05:00:54;;;;;;;5.75;2.47;;;13.90;58.20;;;;;;5032876;28;20101;-73
2023/01/31 05:03:20;;;;;;;5.85;2.13;;;13.90;58.20;;;;;;5032582;28;20052;-73
2023/01/31 05:05:50;;;;;;;9.65;2.28;;;13.90;58.20;;;;;;5032652;28;20038;-73
2023/01/31 05:08:16;;;;;;;8.80;2.05;;;13.90;58.30;;;;;;5032895;28;20041;-74
2023/01/31 05:10:41;;;;;;;5.85;2.13;;;13.90;58.20;;;;;;5032605;28;20022;-74
2023/01/31 05:13:08;;;;;;;7.93;2.45;;;13.90;58.20;;;;;;5032774;28;20033;-74
2023/01/31 05:15:33;;;;;;;6.65;2.30;;;13.90;58.30;;;;;;5032721;28;20087;-74
2023/01/31 05:18:02;;;;;;;12.77;2.95;;;13.90;58.40;;;;;;5032669;28;20418;-73
2023/01/31 05:20:30;;;;;;;6.30;2.25;;;13.90;58.30;;;;;;5032596;28;20036;-74
2023/01/31 05:22:57;;;;;;;8.23;2.45;;;13.90;58.90;;;;;;5032631;28;20395;-73
2023/01/31 05:25:23;;;;;;;5.80;2.28;;;13.90;58.20;;;;;;5032472;28;20025;-73
2023/01/31 05:27:48;;;;;;;6.93;2.15;;;13.90;58.30;;;;;;5032488;28;20049;-73
2023/01/31 05:30:14;;;;;;;5.80;2.20;;;13.90;58.30;;;;;;5032486;28;20057;-73
2023/01/31 05:32:40;;;;;;;6.80;2.45;;;13.90;58.40;;;;;;5032394;28;20018;-73
2023/01/31 05:35:06;;;;;;;7.47;2.63;;;13.90;58.40;;;;;;5032398;28;20049;-73
2023/01/31 05:37:31;;;;;;;7.47;2.22;;;13.90;58.40;;;;;;5032285;28;20068;-73
2023/01/31 05:39:57;;;;;;;5.95;2.13;;;13.90;58.40;;;;;;5032339;28;20070;-73
2023/01/31 05:42:22;;;;;;;9.23;2.40;;;13.90;58.50;;;;;;5014608;28;20029;-73
2023/01/31 05:44:48;;;;;;;8.38;2.25;;;13.90;58.60;;;;;;5032051;28;20086;-73
2023/01/31 05:47:14;;;;;;;8.40;2.97;;;13.90;58.50;;;;;;5032213;28;20025;-73
2023/01/31 05:49:39;;;;;;;10.40;2.95;;;13.90;58.60;;;;;;5032168;28;20029;-73
2023/01/31 05:52:05;;;;;;;6.88;2.40;;;13.90;58.70;;;;;;5032158;28;20022;-73
2023/01/31 05:54:31;;;;;;;4.80;2.85;;;13.90;58.70;;;;;;5032143;28;20033;-73
2023/01/31 05:56:56;;;;;;;6.10;2.97;;;13.90;58.70;;;;;;5032060;28;20017;-73
2023/01/31 05:59:22;;;;;;;6.22;3.83;;;13.90;58.80;;;;;;5032149;28;20037;-73
2023/01/31 06:01:47;;;;;;;8.68;5.40;;;13.90;58.80;;;;;;5032001;28;20048;-73
2023/01/31 06:04:13;;;;;;;8.57;5.80;;;13.90;59.00;;;;;;5032087;28;20476;-73
2023/01/31 06:06:39;;;;;;;11.70;7.10;;;13.90;58.90;;;;;;5032050;28;20060;-73
2023/01/31 06:09:04;;;;;;;12.35;7.35;;;13.90;59.10;;;;;;5032302;28;20022;-74
2023/01/31 06:11:30;;;;;;;9.60;8.48;;;13.90;59.00;;;;;;5032121;28;20083;-74
2023/01/31 06:13:57;;;;;;;13.48;9.73;;;13.90;59.00;;;;;;5031962;28;20053;-73
2023/01/31 06:16:23;;;;;;;14.48;10.77;;;13.90;59.10;;;;;;5032202;28;20052;-74
2023/01/31 06:18:49;;;;;;;13.55;11.13;;;13.90;59.20;;;;;;5032053;28;20069;-74
2023/01/31 06:21:15;;;;;;;13.23;11.73;;;13.90;59.30;;;;;;5031917;28;20437;-74
2023/01/31 06:23:45;;;;;;;14.07;11.77;;;13.90;59.20;;;;;;5031886;28;20030;-74
2023/01/31 06:26:11;;;;;;;14.43;12.40;;;13.90;59.30;;;;;;5031745;28;20083;-72
2023/01/31 06:28:37;;;;;;;13.43;11.85;;;13.90;59.20;;;;;;5031841;28;20051;-73
2023/01/31 06:31:08;;;;;;;17.48;14.10;;;13.90;59.40;;;;;;5031726;28;20021;-74
2023/01/31 06:33:33;;;;;;;17.38;13.13;;;13.90;59.20;;;;;;5031811;28;20037;-75
2023/01/31 06:35:59;;;;;;;15.18;12.13;;;13.90;59.40;;;;;;5031650;28;20472;-75
2023/01/31 06:38:26;;;;;;;13.18;11.65;;;13.90;59.30;;;;;;5032266;28;20032;-74
2023/01/31 06:40:52;;;;;;;12.48;11.13;;;13.90;59.20;;;;;;5031618;28;20100;-74
2023/01/31 06:43:17;;;;;;;12.48;10.25;;;13.90;59.20;;;;;;5031703;28;20115;-74
2023/01/31 06:45:43;;;;;;;12.45;11.13;;;13.90;59.30;;;;;;5031623;28;20034;-73
2023/01/31 06:48:10;;;;;;;16.02;10.35;;;13.90;59.20;;;;;;5031692;28;20026;-73
2023/01/31 06:50:35;;;;;;;14.32;10.10;;;13.90;59.20;;;;;;5031610;28;20021;-74
2023/01/31 06:53:01;;;;;;;11.60;9.65;;;13.90;59.20;;;;;;5031435;28;20028;-74
2023/01/31 06:55:27;;;;;;;12.52;9.00;;;13.90;59.20;;;;;;5031613;28;20029;-73
2023/01/31 06:57:54;;;;;;;11.02;8.18;;;13.90;59.80;;;;;;5031524;28;20075;-74
2023/01/31 07:00:20;;;;;;;11.82;8.23;;;13.90;59.00;;;;;;5031574;28;20104;-75
2023/01/31 07:02:46;;;;;;;10.35;8.00;;;13.90;59.00;;;;;;5032141;28;20055;-74
2023/01/31 07:05:12;;;;;;;12.50;7.22;;;13.90;58.90;;;;;;5035059;28;20447;-74
2023/01/31 07:07:38;;;;;;;12.65;7.63;;;13.90;58.90;;;;;;5035115;28;20021;-75
2023/01/31 07:10:04;;;;;;;12.40;7.05;;;13.90;58.90;;;;;;5034953;28;20033;-74
2023/01/31 07:12:30;;;;;;;9.88;5.78;;;13.90;59.00;;;;;;5034856;28;20049;-74
2023/01/31 07:14:56;;;;;;;11.45;6.15;;;13.90;59.00;;;;;;5035021;28;20096;-75
2023/01/31 07:17:22;;;;;;;10.30;5.70;;;13.90;59.00;;;;;;5035373;28;20065;-74
2023/01/31 07:19:48;;;;;;;10.73;5.43;;;13.90;59.00;;;;;;5035110;28;20025;-73
2023/01/31 07:22:14;;;;;;;9.23;5.13;;;13.90;59.10;;;;;;5035052;28;20357;-74
2023/01/31 07:24:40;;;;;;;11.60;5.05;;;13.90;59.00;;;;;;5034710;28;20480;-75
2023/01/31 07:27:06;;;;;;;10.18;4.85;;;13.90;58.90;;;;;;5034633;28;20044;-74
2023/01/31 07:29:31;;;;;;;9.40;4.43;;;14.00;58.90;;;;;;5034657;28;20021;-72
2023/01/31 07:31:57;;;;;;;12.50;4.70;;;13.90;58.90;;;;;;5034566;28;20104;-72
2023/01/31 07:34:22;;;;;;;8.43;4.70;;;13.90;58.90;;;;;;5017230;28;20018;-73
2023/01/31 07:36:49;;;;;;;9.63;4.32;;;13.90;58.80;;;;;;5034475;28;20025;-74
2023/01/31 07:39:15;;;;;;;10.48;3.80;;;13.90;58.90;;;;;;5016785;28;20458;-73
2023/01/31 07:41:42;;;;;;;11.45;3.72;;;13.90;58.70;;;;;;5016832;28;20052;-75
2023/01/31 07:44:10;;;;;;;7.65;3.60;;;13.90;58.60;;;;;;5016674;28;20025;-73
2023/01/31 07:46:37;;;;;;;8.15;2.97;;;14.00;58.60;;;;;;5034265;28;20025;-75
2023/01/31 07:49:03;;;;;;;10.60;3.40;;;14.00;59.20;;;;;;5034543;28;20049;-73
2023/01/31 07:51:28;;;;;;;10.68;3.58;;;13.90;58.50;;;;;;5034176;28;20594;-73
2023/01/31 07:53:55;;;;;;;10.32;3.10;;;14.00;58.60;;;;;;5034216;28;20036;-73
2023/01/31 07:56:21;;;;;;;10.00;3.35;;;14.00;58.70;;;;;;5034131;28;20021;-73
2023/01/31 07:58:49;;;;;;;9.20;2.92;;;14.00;58.70;;;;;;5034401;28;20357;-72
2023/01/31 08:04:00;;;;;;;9.30;3.38;;;13.90;59.00;;;;;;5033974;28;20088;-74
2023/01/31 08:06:31;;;;;;;10.18;3.10;;;13.90;59.50;;;;;;5033854;28;20037;-73
2023/01/31 08:08:59;;;;;;;10.68;3.28;;;13.90;59.00;;;;;;5033939;28;20029;-75
2023/01/31 08:11:24;;;;;;;7.38;2.50;;;13.90;59.30;;;;;;5033963;28;20029;-74
2023/01/31 08:13:50;;;;;;;9.75;2.85;;;13.90;59.30;;;;;;5032997;28;20396;-74
2023/01/31 08:16:16;;;;;;;8.70;2.55;;;14.00;59.90;;;;;;5015520;28;20211;-74
2023/01/31 08:18:42;;;;;;;9.02;3.08;;;14.00;59.20;;;;;;5033848;28;20264;-75
2023/01/31 08:21:11;;;;;;;8.27;2.65;;;14.00;59.20;;;;;;5033866;28;20595;-75
2023/01/31 08:23:39;;;;;;;8.60;2.50;;;14.00;59.30;;;;;;5033459;28;20137;-76
2023/01/31 08:26:17;;;;;;;9.13;3.00;;;14.00;59.20;;;;;;5033651;28;20037;-76
2023/01/31 08:28:45;;;;;;;8.30;2.80;;;14.10;59.10;;;;;;5033388;28;20119;-76
2023/01/31 08:31:17;;;;;;;9.40;2.75;;;14.10;59.10;;;;;;5033289;28;20033;-75
2023/01/31 08:33:43;;;;;;;8.02;3.17;;;14.10;59.10;;;;;;5033233;28;20025;-75
2023/01/31 08:36:10;;;;;;;8.38;2.95;;;14.10;58.90;;;;;;5033652;28;20025;-72
2023/01/31 08:38:37;;;;;;;7.32;2.40;;;14.10;59.00;;;;;;5033364;28;20040;-73
2023/01/31 08:41:03;;;;;;;10.50;2.50;;;14.10;58.80;;;;;;5033266;28;20476;-73
2023/01/31 08:43:29;;;;;;;6.63;2.00;;;14.10;59.00;;;;;;5033353;28;20022;-73
2023/01/31 08:45:55;;;;;;;6.60;2.58;;;14.20;59.00;;;;;;5033299;28;20113;-73
2023/01/31 08:48:21;;;;;;;6.78;2.38;;;14.20;58.90;;;;;;5033254;28;20041;-73
2023/01/31 08:50:47;;;;;;;9.95;2.45;;;14.20;58.80;;;;;;5033048;28;20049;-73
2023/01/31 08:53:13;;;;;;;9.48;2.75;;;14.20;59.40;;;;;;5033241;28;20104;-73
2023/01/31 08:55:39;;;;;;;6.25;2.35;;;14.20;58.70;;;;;;5033183;28;20368;-73
2023/01/31 08:58:05;;;;;;;7.57;2.42;;;14.20;58.70;;;;;;5033235;28;20021;-73
2023/01/31 09:00:32;;;;;;;11.38;2.75;;;14.20;58.70;;;;;;5032700;28;20064;-73
2023/01/31 09:02:59;;;;;;;7.60;2.90;;;14.20;58.60;;;;;;5032755;28;20061;-73
2023/01/31 09:05:28;;;;;;;5.82;2.13;;;14.20;58.60;;;;;;5032996;28;20405;-74
2023/01/31 09:07:54;;;;;;;12.10;3.08;;;14.20;58.50;;;;;;5032757;28;20472;-73
2023/01/31 09:10:20;;;;;;;4.55;2.33;;;14.30;58.50;;;;;;5032998;28;20018;-73
2023/01/31 09:12:47;;;;;;;6.57;2.20;;;14.20;58.40;;;;;;5032689;28;20025;-73
2023/01/31 09:15:13;;;;;;;9.38;2.08;;;14.30;58.40;;;;;;5032838;28;20463;-73
2023/01/31 09:17:40;;;;;;;11.48;2.92;;;14.20;58.50;;;;;;5032855;28;20071;-73
2023/01/31 09:20:08;;;;;;;7.53;2.00;;;14.30;58.50;;;;;;5032911;28;20037;-73
2023/01/31 09:22:35;;;;;;;5.38;2.13;;;14.30;58.50;;;;;;5032746;28;20056;-73
2023/01/31 09:25:02;;;;;;;8.20;2.50;;;14.20;58.50;;;;;;5032253;28;20091;-74
2023/01/31 09:27:28;;;;;;;6.97;2.08;;;14.20;58.40;;;;;;5035384;28;20460;-73
2023/01/31 09:29:55;;;;;;;9.45;2.60;;;14.30;58.50;;;;;;5032767;28;20025;-73
2023/01/31 09:32:21;;;;;;;8.85;2.40;;;14.30;58.50;;;;;;5032865;28;20022;-76
2023/01/31 09:34:50;;;;;;;12.65;3.40;;;14.30;58.50;;;;;;5032508;28;20551;-76
2023/01/31 09:37:16;;;;;;;8.82;2.40;;;14.30;58.40;;;;;;5032395;28;20025;-75
2023/01/31 09:39:42;;;;;;;10.02;2.78;;;14.30;58.40;;;;;;5032579;28;20404;-75
2023/01/31 09:42:27;;;;;;;8.82;2.78;;;14.30;58.40;;;;;;5032263;28;20033;-75
2023/01/31 09:45:01;;;;;;;8.18;2.20;;;14.30;58.40;;;;;;5032422;28;20434;-75
2023/01/31 09:47:36;;;;;;;7.78;2.08;;;14.30;58.40;;;;;;5032612;28;20109;-75
2023/01/31 09:50:36;;;;;;;8.50;2.80;;;14.30;58.50;;;;;;5032385;28;20052;-75
2023/01/31 09:53:02;;;;;;;7.60;2.80;;;14.30;58.40;;;;;;5032231;28;20026;-76
2023/01/31 09:55:45;;;;;;;9.45;2.67;;;14.20;58.50;;;;;;5032147;28;20032;-75
2023/01/31 09:58:17;;;;;;;7.90;2.25;;;14.30;58.50;;;;;;5032476;28;20430;-75
2023/01/31 10:00:52;;;;;;;10.98;2.10;;;14.30;58.40;;;;;;5032298;28;20110;-75
2023/01/31 10:03:43;;;;;;;7.78;2.33;;;14.30;58.40;;;;;;5031823;28;20060;-76
2023/01/31 10:06:22;;;;;;;6.78;2.05;;;14.30;58.50;;;;;;5032314;28;20030;-75
2023/01/31 10:09:29;;;;;;;8.63;2.00;;;14.30;58.50;;;;;;5032303;28;20037;-73
2023/01/31 10:12:06;;;;;;;7.78;2.55;;;14.30;58.40;;;;;;5031790;28;20025;-73
2023/01/31 10:14:54;;;;;;;10.23;2.50;;;14.30;58.50;;;;;;5031833;28;20026;-73
2023/01/31 10:17:46;;;;;;;6.57;2.05;;;14.30;58.50;;;;;;5031806;28;20060;-73
2023/01/31 10:20:33;;;;;;;10.35;2.53;;;14.30;58.50;;;;;;5031920;28;20045;-73
2023/01/31 10:23:15;;;;;;;5.13;1.80;;;14.30;58.50;;;;;;5031757;28;20388;-73
2023/01/31 10:26:15;;;;;;;7.45;2.85;;;14.30;58.50;;;;;;5031515;28;20030;-73
2023/01/31 10:29:11;;;;;;;9.85;2.17;;;14.40;58.50;;;;;;5020592;28;20038;-73
2023/01/31 10:32:01;;;;;;;7.05;2.38;;;14.30;58.40;;;;;;5031731;28;20075;-73
2023/01/31 10:34:37;;;;;;;11.70;2.47;;;14.30;58.50;;;;;;5030800;28;20026;-73
2023/01/31 10:37:29;;;;;;;11.10;2.50;;;14.30;58.50;;;;;;5031903;28;20383;-73
2023/01/31 10:40:01;;;;;;;6.80;2.47;;;14.40;58.50;;;;;;5035566;28;20116;-73
2023/01/31 10:42:33;;;;;;;10.60;2.13;;;14.40;58.60;;;;;;5035458;28;20458;-73
2023/01/31 10:45:07;;;;;;;8.52;2.33;;;14.40;59.20;;;;;;5035214;28;20033;-75
2023/01/31 10:47:35;;;;;;;7.07;2.13;;;14.40;58.50;;;;;;5035688;28;20387;-75
2023/01/31 10:50:13;;;;;;;7.80;2.25;;;14.40;58.50;;;;;;5035453;28;20067;-75
2023/01/31 10:52:39;;;;;;;5.50;2.10;;;14.40;58.50;;;;;;5035553;28;20117;-74
2023/01/31 10:55:42;;;;;;;6.93;1.95;;;14.40;58.60;;;;;;5035264;28;20446;-73
2023/01/31 10:58:21;;;;;;;8.65;2.17;;;14.40;58.60;;;;;;5035515;28;20036;-72
2023/01/31 11:00:47;;;;;;;7.47;2.13;;;14.30;58.70;;;;;;5035522;28;20075;-73
2023/01/31 11:03:14;;;;;;;9.27;2.28;;;14.30;58.70;;;;;;5034912;28;20072;-74
2023/01/31 11:05:52;;;;;;;5.78;1.88;;;14.30;58.70;;;;;;5035243;28;20408;-74
2023/01/31 11:08:40;;;;;;;6.47;2.03;;;14.30;58.80;;;;;;5035161;28;20286;-73
2023/01/31 11:11:09;;;;;;;6.60;1.65;;;14.40;58.80;;;;;;5034907;28;20017;-73
2023/01/31 11:13:35;;;;;;;7.57;1.98;;;14.40;58.90;;;;;;5035026;28;20104;-73
2023/01/31 11:16:05;;;;;;;7.35;1.58;;;14.30;58.80;;;;;;5034821;28;20022;-73
2023/01/31 11:18:37;;;;;;;8.02;2.50;;;14.40;58.90;;;;;;5034954;28;20029;-73
2023/01/31 11:21:04;;;;;;;10.20;2.22;;;14.30;58.80;;;;;;5034730;28;20033;-73
2023/01/31 11:23:33;;;;;;;6.47;2.05;;;14.30;58.90;;;;;;5034818;28;20049;-74
2023/01/31 11:25:58;;;;;;;8.60;2.25;;;14.30;58.90;;;;;;5034651;28;20045;-74
2023/01/31 11:28:39;;;;;;;6.43;1.85;;;14.30;59.00;;;;;;5034721;28;20020;-74
2023/01/31 11:31:16;;;;;;;8.25;2.35;;;14.40;59.00;;;;;;5034560;28;20033;-74
2023/01/31 11:33:55;;;;;;;7.82;2.45;;;14.30;58.90;;;;;;5034536;28;20076;-74
2023/01/31 11:36:25;;;;;;;9.55;1.90;;;14.40;59.10;;;;;;5034439;28;20033;-74
2023/01/31 11:38:52;;;;;;;8.50;2.40;;;14.30;59.10;;;;;;5034491;28;20107;-73
2023/01/31 11:41:36;;;;;;;8.05;2.03;;;14.30;59.10;;;;;;5034357;28;20049;-74
2023/01/31 11:44:14;;;;;;;5.90;1.90;;;14.30;59.20;;;;;;5034340;28;20052;-74
2023/01/31 11:46:55;;;;;;;6.10;2.00;;;14.30;59.20;;;;;;5034252;28;20495;-73
2023/01/31 11:49:30;;;;;;;11.43;2.45;;;14.40;59.20;;;;;;5034305;28;20180;-74
2023/01/31 11:51:58;;;;;;;9.13;2.55;;;14.40;59.20;;;;;;5034194;28;20029;-74
2023/01/31 11:54:28;;;;;;;8.52;2.30;;;14.40;59.20;;;;;;5034337;28;20444;-74
2023/01/31 11:56:55;;;;;;;4.90;1.88;;;14.40;59.20;;;;;;5034436;28;20028;-73
2023/01/31 11:59:24;;;;;;;7.22;1.70;;;14.40;59.20;;;;;;5034023;28;20053;-74
2023/01/31 12:01:53;;;;;;;9.25;1.83;;;14.40;59.30;;;;;;5033777;28;20488;-73
2023/01/31 12:04:25;;;;;;;7.15;2.20;;;14.40;59.20;;;;;;5034270;28;20442;-73
2023/01/31 12:07:19;;;;;;;6.13;1.83;;;14.40;59.20;;;;;;5034232;28;20037;-73
2023/01/31 12:09:45;;;;;;;7.45;2.38;;;14.40;59.30;;;;;;5034147;28;20032;-73
2023/01/31 12:12:34;;;;;;;4.72;1.67;;;14.30;59.30;;;;;;5033925;28;20056;-73
2023/01/31 12:15:04;;;;;;;7.30;1.90;;;14.40;59.40;;;;;;5033787;28;20026;-73
2023/01/31 12:17:33;;;;;;;6.97;1.95;;;14.40;59.40;;;;;;5033749;28;20508;-74
2023/01/31 12:20:38;;;;;;;7.40;1.90;;;14.30;59.40;;;;;;5033751;28;20021;-73
2023/01/31 12:23:29;;;;;;;6.00;2.28;;;14.40;59.40;;;;;;5003008;28;20046;-73
2023/01/31 12:26:16;;;;;;;10.90;2.17;;;14.40;59.60;;;;;;5033476;28;20038;-73
2023/01/31 12:28:54;;;;;;;8.02;2.05;;;14.40;59.40;;;;;;5033543;28;20367;-73
2023/01/31 12:31:41;;;;;;;7.80;2.50;;;14.40;59.60;;;;;;5033624;28;20022;-73
2023/01/31 12:34:35;;;;;;;9.13;2.08;;;14.30;59.60;;;;;;5033898;28;20025;-73
2023/01/31 12:37:45;;;;;;;8.23;2.33;;;14.40;59.50;;;;;;5033329;28;20029;-74
2023/01/31 12:40:34;;;;;;;6.22;1.88;;;14.40;59.50;;;;;;5033215;28;20504;-74
2023/01/31 12:43:03;;;;;;;7.18;2.22;;;14.40;59.70;;;;;;5033225;28;20067;-74
2023/01/31 12:45:56;;;;;;;8.85;2.10;;;14.30;59.60;;;;;;5032942;28;20542;-74
2023/01/31 12:48:41;;;;;;;6.50;2.00;;;14.40;59.60;;;;;;5033328;28;20022;-74
2023/01/31 12:51:58;;;;;;;6.18;2.38;;;14.40;59.80;;;;;;5033417;28;20121;-74
2023/01/31 12:54:59;;;;;;;7.72;2.03;;;14.30;59.50;;;;;;4980556;28;20038;-74
2023/01/31 12:57:34;;;;;;;7.70;2.50;;;14.40;59.60;;;;;;5033212;28;20040;-74
2023/01/31 13:00:19;;;;;;;6.68;2.22;;;14.40;59.70;;;;;;5032289;28;20026;-73
2023/01/31 13:03:11;;;;;;;7.88;2.03;;;14.40;59.70;;;;;;5032557;28;20053;-74
2023/01/31 13:05:44;;;;;;;6.05;2.42;;;14.40;59.60;;;;;;5032597;28;20479;-74
2023/01/31 13:08:20;;;;;;;7.85;2.10;;;14.40;59.80;;;;;;5033086;28;20021;-74
2023/01/31 13:11:01;;;;;;;7.47;1.75;;;14.40;59.70;;;;;;5032992;28;20475;-74
2023/01/31 13:13:32;;;;;;;5.57;2.17;;;14.40;59.70;;;;;;5032943;28;20164;-74